createdAt,value
2017-08-15T13:47:40.693Z,788
2017-08-15T13:49:42.132Z,960
2017-08-15T13:51:43.570Z,888
2017-08-15T13:53:45.152Z,820
2017-08-15T13:55:46.594Z,836
2017-08-15T13:58:29.029Z,836
2017-08-15T14:00:30.470Z,720
2017-08-15T14:02:31.908Z,808
2017-08-15T14:04:33.352Z,840
2017-08-15T14:06:34.796Z,808
2017-08-15T14:08:36.235Z,856
2017-08-15T14:10:37.703Z,856
2017-08-15T14:12:39.612Z,708
2017-08-15T14:14:41.054Z,792
2017-08-15T14:16:42.830Z,768
2017-08-15T14:18:44.282Z,600
2017-08-15T14:20:45.833Z,500
2017-08-15T14:22:47.345Z,480
2017-08-15T14:24:48.902Z,600
2017-08-15T14:26:50.856Z,652
2017-08-15T14:28:52.832Z,660
2017-08-15T14:30:54.343Z,656
2017-08-15T14:32:55.928Z,608
2017-08-15T14:34:57.488Z,540
2017-08-15T14:36:59.368Z,540
2017-08-15T14:39:00.900Z,628
2017-08-15T14:41:02.427Z,612
2017-08-15T14:43:45.438Z,684
2017-08-15T14:45:46.984Z,712
2017-08-15T14:47:48.419Z,784
2017-08-15T14:49:49.860Z,844
2017-08-15T14:51:51.455Z,856
2017-08-15T14:53:52.872Z,868
2017-08-15T14:55:54.312Z,816
2017-08-15T14:57:55.752Z,736
2017-08-15T14:59:57.192Z,588
2017-08-15T15:01:58.638Z,524
2017-08-15T15:04:41.059Z,616
2017-08-15T15:06:43.770Z,672
2017-08-15T15:08:45.483Z,676
2017-08-15T15:10:47.414Z,624
2017-08-15T15:12:48.845Z,576
2017-08-15T15:14:50.716Z,484
2017-08-15T15:16:52.173Z,460
2017-08-15T15:19:34.861Z,348
2017-08-15T15:21:36.301Z,356
2017-08-15T15:23:37.788Z,444
2017-08-15T15:25:39.614Z,504
2017-08-15T15:27:41.063Z,576
2017-08-15T15:29:42.495Z,604
2017-08-15T15:31:43.980Z,576
2017-08-15T15:33:45.431Z,488
2017-08-15T15:35:46.865Z,336
2017-08-15T15:37:48.317Z,276
2017-08-15T15:39:49.756Z,304
2017-08-15T15:41:51.273Z,388
2017-08-15T15:43:52.712Z,408
2017-08-15T15:45:54.151Z,400
2017-08-15T15:47:56.350Z,396
2017-08-15T15:50:37.825Z,392
2017-08-15T15:52:39.269Z,372
2017-08-15T15:54:40.713Z,336
2017-08-15T15:56:42.149Z,300
2017-08-15T15:58:43.585Z,304
2017-08-15T16:00:45.093Z,316
2017-08-15T16:02:46.562Z,292
2017-08-15T16:04:47.976Z,252
2017-08-15T16:06:49.442Z,240
2017-08-15T16:08:50.878Z,224
2017-08-15T16:10:52.320Z,232
2017-08-15T16:12:53.768Z,220
2017-08-15T16:14:55.207Z,140
2017-08-15T16:16:56.643Z,96
2017-08-15T16:18:58.149Z,72
2017-08-15T16:20:59.665Z,68
2017-08-15T16:23:01.231Z,56
2017-08-15T16:25:02.763Z,68
2017-08-15T16:27:04.736Z,68
2017-08-15T16:29:06.415Z,76
2017-08-15T16:31:07.963Z,120
2017-08-15T16:33:09.514Z,136
2017-08-15T16:35:11.053Z,160
2017-08-15T16:37:12.535Z,208
2017-08-15T16:39:14.036Z,224
2017-08-15T16:41:15.657Z,220
2017-08-15T16:43:17.206Z,200
2017-08-15T16:45:18.867Z,212
2017-08-15T16:47:22.974Z,240
2017-08-15T16:49:24.510Z,272
2017-08-15T16:51:26.129Z,292
2017-08-15T16:53:27.651Z,280
2017-08-15T16:55:29.365Z,244
2017-08-15T16:57:31.020Z,216
2017-08-15T16:59:32.580Z,188
2017-08-15T17:01:34.105Z,160
2017-08-15T17:03:35.703Z,160
2017-08-15T17:05:37.351Z,152
2017-08-15T17:07:38.917Z,128
2017-08-15T17:09:40.432Z,156
2017-08-15T17:11:41.938Z,200
2017-08-15T17:13:43.473Z,184
2017-08-15T17:15:45.058Z,184
2017-08-15T17:17:46.575Z,208
2017-08-15T17:19:48.218Z,192
2017-08-15T17:21:49.769Z,144
2017-08-15T17:23:51.357Z,84
2017-08-15T17:25:52.864Z,76
2017-08-15T17:27:54.443Z,56
2017-08-15T17:29:55.980Z,48
2017-08-15T17:31:57.552Z,44
2017-08-15T17:33:59.174Z,56
2017-08-15T17:36:00.759Z,72
2017-08-15T17:38:02.275Z,100
2017-08-15T17:40:03.893Z,124
2017-08-15T17:42:05.435Z,92
2017-08-15T17:44:06.959Z,56
2017-08-15T17:46:08.510Z,40
2017-08-15T17:48:10.000Z,28
2017-08-15T17:50:11.561Z,28
2017-08-15T17:52:13.066Z,52
2017-08-15T17:54:14.527Z,52
2017-08-15T17:56:16.044Z,76
2017-08-15T17:58:17.557Z,88
2017-08-15T18:00:19.057Z,84
2017-08-15T18:02:20.514Z,80
2017-08-15T18:04:22.051Z,52
2017-08-15T18:06:23.582Z,48
2017-08-15T18:08:25.102Z,48
2017-08-15T18:10:26.560Z,52
2017-08-15T18:12:28.167Z,52
2017-08-15T18:14:29.720Z,48
2017-08-15T18:16:31.205Z,48
2017-08-15T18:18:32.747Z,48
2017-08-15T18:20:34.288Z,44
2017-08-15T18:22:35.890Z,40
2017-08-15T18:24:37.396Z,36
2017-08-15T18:26:38.923Z,24
2017-08-15T18:28:40.572Z,28
2017-08-15T18:30:42.056Z,24
2017-08-15T18:32:43.613Z,24
2017-08-15T18:34:45.258Z,20
2017-08-15T18:36:46.853Z,12
2017-08-15T18:38:48.417Z,8
2017-08-15T18:40:50.103Z,8
2017-08-15T18:42:52.086Z,4
2017-08-15T18:44:54.042Z,0
2017-08-15T18:46:55.551Z,4
2017-08-15T18:48:57.025Z,0
2017-08-15T18:50:58.528Z,4
2017-08-15T18:53:00.057Z,4
2017-08-15T18:55:01.575Z,4
2017-08-15T18:57:03.152Z,0
2017-08-15T18:59:04.705Z,0
2017-08-15T19:01:06.262Z,0
2017-08-15T19:03:07.779Z,0
2017-08-15T19:05:09.350Z,0
2017-08-15T19:07:10.823Z,0
2017-08-15T19:09:12.369Z,0
2017-08-15T19:11:13.930Z,0
2017-08-15T19:13:15.506Z,0
2017-08-15T19:15:17.058Z,0
2017-08-15T19:17:18.566Z,0
2017-08-15T19:19:20.125Z,0
2017-08-15T19:21:21.778Z,0
2017-08-15T19:23:23.227Z,0
2017-08-15T19:25:24.731Z,0
2017-08-15T19:27:26.320Z,0
2017-08-15T19:29:27.867Z,0
2017-08-15T19:31:29.456Z,0
2017-08-15T19:33:31.272Z,0
2017-08-15T19:35:33.322Z,0
2017-08-15T19:37:34.806Z,0
2017-08-15T19:39:36.603Z,0
2017-08-15T19:41:38.110Z,0
2017-08-15T19:43:39.626Z,0
2017-08-15T19:45:41.182Z,0
2017-08-15T19:47:42.720Z,0
2017-08-15T19:49:44.336Z,0
2017-08-15T19:51:45.826Z,0
2017-08-15T19:53:47.345Z,0
2017-08-15T19:55:48.970Z,0
2017-08-15T19:57:50.546Z,0
2017-08-15T19:59:52.045Z,0
2017-08-15T20:01:53.684Z,0
2017-08-15T20:03:55.258Z,0
2017-08-15T20:05:56.954Z,0
2017-08-15T20:07:58.699Z,0
2017-08-15T20:10:00.215Z,0
2017-08-15T20:12:01.730Z,0
2017-08-15T20:14:03.212Z,0
2017-08-15T20:16:05.089Z,0
2017-08-15T20:18:06.605Z,0
2017-08-15T20:20:08.304Z,0
2017-08-15T20:22:09.898Z,0
2017-08-15T20:24:11.427Z,0
2017-08-15T20:26:12.921Z,0
2017-08-15T20:28:14.445Z,0
2017-08-15T20:30:15.978Z,0
2017-08-15T20:32:17.532Z,0
2017-08-15T20:34:19.083Z,0
2017-08-15T20:36:20.586Z,0
2017-08-15T20:39:03.235Z,0
2017-08-15T20:41:05.355Z,0
2017-08-15T20:43:06.888Z,0
2017-08-15T20:45:08.565Z,0
2017-08-15T20:47:10.029Z,0
2017-08-15T20:49:11.466Z,0
2017-08-15T20:51:12.909Z,0
2017-08-15T20:53:14.356Z,0
2017-08-15T20:55:15.797Z,0
2017-08-15T20:57:17.252Z,0
2017-08-15T20:59:18.688Z,0
2017-08-15T21:01:20.114Z,0
2017-08-15T21:03:21.544Z,0
2017-08-15T21:05:23.020Z,0
2017-08-15T21:07:24.582Z,0
2017-08-15T21:09:26.077Z,0
2017-08-15T21:11:27.537Z,0
2017-08-15T21:13:29.059Z,0
2017-08-15T21:15:30.621Z,0
2017-08-15T21:17:32.144Z,0
2017-08-15T21:19:33.831Z,0
2017-08-15T21:21:35.606Z,0
2017-08-15T21:23:37.348Z,0
2017-08-15T21:25:38.862Z,0
2017-08-15T21:27:40.373Z,0
2017-08-15T21:29:41.988Z,0
2017-08-15T21:31:43.572Z,0
2017-08-15T21:33:45.069Z,0
2017-08-15T21:35:46.617Z,0
2017-08-15T21:37:48.154Z,0
2017-08-15T21:40:30.609Z,0
2017-08-15T21:42:32.029Z,0
2017-08-15T21:44:33.508Z,0
2017-08-15T21:46:34.939Z,0
2017-08-15T21:48:36.372Z,0
2017-08-15T21:50:37.808Z,0
2017-08-15T21:52:39.234Z,0
2017-08-15T21:55:21.709Z,0
2017-08-15T21:57:23.140Z,0
2017-08-15T21:59:24.582Z,0
2017-08-15T22:01:25.996Z,0
2017-08-15T22:03:27.429Z,0
2017-08-15T22:05:29.484Z,0
2017-08-15T22:07:30.912Z,0
2017-08-15T22:09:32.341Z,0
2017-08-15T22:11:33.797Z,0
2017-08-15T22:13:35.525Z,0
2017-08-15T22:15:37.051Z,0
2017-08-15T22:17:38.735Z,0
2017-08-15T22:19:40.339Z,0
2017-08-15T22:21:42.054Z,0
2017-08-15T22:23:43.885Z,0
2017-08-15T22:25:45.339Z,0
2017-08-15T22:27:46.771Z,0
2017-08-15T22:29:48.337Z,0
2017-08-15T22:32:29.431Z,0
2017-08-15T22:34:31.108Z,0
2017-08-15T22:36:32.538Z,0
2017-08-15T22:38:34.063Z,0
2017-08-15T22:40:35.504Z,0
2017-08-15T22:42:37.182Z,0
2017-08-15T22:44:38.923Z,0
2017-08-15T22:46:40.552Z,0
2017-08-15T22:48:42.916Z,0
2017-08-15T22:50:45.375Z,0
2017-08-15T22:52:47.136Z,0
2017-08-15T22:54:49.386Z,0
2017-08-15T22:56:51.256Z,0
2017-08-15T22:59:35.002Z,0
2017-08-15T23:01:37.815Z,0
2017-08-15T23:03:40.395Z,0
2017-08-15T23:05:42.240Z,0
2017-08-15T23:07:44.551Z,0
2017-08-15T23:09:46.292Z,0
2017-08-15T23:11:47.842Z,0
2017-08-15T23:13:49.264Z,0
2017-08-15T23:16:31.722Z,0
2017-08-15T23:18:33.204Z,0
2017-08-15T23:20:34.904Z,0
2017-08-15T23:22:36.345Z,0
2017-08-15T23:24:37.962Z,0
2017-08-15T23:26:39.509Z,0
2017-08-15T23:28:41.045Z,0
2017-08-15T23:30:43.564Z,0
2017-08-15T23:32:45.207Z,0
2017-08-15T23:35:27.695Z,0
2017-08-15T23:37:29.718Z,0
2017-08-15T23:39:31.137Z,0
2017-08-15T23:41:33.414Z,0
2017-08-15T23:43:34.877Z,0
2017-08-15T23:45:36.411Z,0
2017-08-15T23:47:38.902Z,0
2017-08-15T23:49:40.639Z,0
2017-08-15T23:51:42.190Z,0
2017-08-15T23:53:44.532Z,0
2017-08-15T23:56:29.078Z,0
2017-08-15T23:58:30.994Z,0
